createdAt,value
2023-02-15T00:01:09.476Z,12.70
2023-02-15T00:03:54.950Z,12.87
2023-02-15T00:06:40.458Z,12.23
2023-02-15T00:09:25.792Z,13.37
2023-02-15T00:12:11.600Z,12.23
2023-02-15T00:14:57.130Z,13.30
2023-02-15T00:17:42.731Z,12.73
2023-02-15T00:20:28.239Z,12.63
2023-02-15T00:23:13.720Z,12.90
2023-02-15T00:26:06.466Z,12.77
2023-02-15T00:28:52.179Z,11.63
2023-02-15T00:31:38.204Z,12.77
2023-02-15T00:34:26.807Z,12.43
2023-02-15T00:37:12.211Z,14.37
2023-02-15T00:39:57.707Z,11.67
2023-02-15T00:42:43.230Z,12.30
2023-02-15T00:45:29.012Z,11.60
2023-02-15T00:48:14.362Z,11.50
2023-02-15T00:51:00.954Z,12.30
2023-02-15T00:53:46.424Z,11.77
2023-02-15T00:56:31.719Z,12.90
2023-02-15T00:59:17.067Z,12.27
2023-02-15T01:02:02.677Z,12.27
2023-02-15T01:04:48.393Z,12.43
2023-02-15T01:07:33.844Z,12.23
2023-02-15T01:10:19.743Z,13.33
2023-02-15T01:13:05.238Z,13.27
2023-02-15T01:15:57.008Z,12.27
2023-02-15T01:18:43.111Z,12.33
2023-02-15T01:21:28.976Z,12.33
2023-02-15T01:24:15.044Z,12.87
2023-02-15T01:27:02.150Z,11.57
2023-02-15T01:29:48.542Z,10.47
2023-02-15T01:32:34.083Z,11.97
2023-02-15T01:35:19.924Z,12.87
2023-02-15T01:38:05.194Z,12.63
2023-02-15T01:40:54.691Z,12.93
2023-02-15T01:43:46.919Z,11.73
2023-02-15T01:46:43.777Z,12.17
2023-02-15T01:49:29.438Z,10.67
2023-02-15T01:52:18.568Z,11.53
2023-02-15T01:55:07.169Z,12.57
2023-02-15T01:57:53.740Z,11.37
2023-02-15T02:00:39.059Z,11.33
2023-02-15T02:03:39.827Z,11.27
2023-02-15T02:06:27.059Z,11.17
2023-02-15T02:09:13.794Z,12.70
2023-02-15T02:11:59.848Z,10.93
2023-02-15T02:14:48.174Z,12.17
2023-02-15T02:17:40.152Z,10.87
2023-02-15T02:20:39.022Z,11.67
2023-02-15T02:23:39.392Z,11.47
2023-02-15T02:26:27.746Z,10.70
2023-02-15T02:30:06.286Z,12.47
2023-02-15T02:33:42.184Z,11.90
2023-02-15T02:36:49.353Z,10.83
2023-02-15T02:39:56.747Z,11.13
2023-02-15T02:43:09.368Z,11.33
2023-02-15T02:46:04.330Z,10.63
2023-02-15T02:48:50.924Z,9.50
2023-02-15T02:51:36.600Z,9.33
2023-02-15T02:54:22.026Z,9.50
2023-02-15T02:57:10.331Z,12.03
2023-02-15T02:59:58.423Z,11.20
2023-02-15T03:02:48.465Z,9.57
2023-02-15T03:05:36.673Z,9.20
2023-02-15T03:08:25.408Z,9.93
2023-02-15T03:11:12.746Z,10.93
2023-02-15T03:13:59.335Z,10.80
2023-02-15T03:16:48.736Z,10.87
2023-02-15T03:19:37.928Z,11.20
2023-02-15T03:23:05.947Z,10.77
2023-02-15T03:25:57.392Z,9.87
2023-02-15T03:28:46.615Z,9.67
2023-02-15T03:31:35.896Z,10.40
2023-02-15T03:34:21.774Z,9.80
2023-02-15T03:37:33.314Z,10.03
2023-02-15T03:40:50.657Z,10.57
2023-02-15T03:43:53.090Z,11.53
2023-02-15T03:46:48.842Z,10.03
2023-02-15T03:49:46.753Z,10.33
2023-02-15T03:52:34.935Z,10.50
2023-02-15T03:55:20.433Z,10.63
2023-02-15T03:58:24.366Z,9.33
2023-02-15T04:01:44.454Z,10.33
2023-02-15T04:04:33.329Z,9.13
2023-02-15T04:07:18.803Z,10.20
2023-02-15T04:10:22.984Z,9.60
2023-02-15T04:13:08.349Z,10.10
2023-02-15T04:16:05.091Z,8.63
2023-02-15T04:19:09.514Z,9.23
2023-02-15T04:22:13.380Z,9.07
2023-02-15T04:25:10.508Z,9.97
2023-02-15T04:27:56.031Z,9.30
2023-02-15T04:30:41.448Z,9.83
2023-02-15T04:33:26.863Z,9.53
2023-02-15T04:36:12.471Z,9.30
2023-02-15T04:38:57.723Z,9.30
2023-02-15T04:41:43.869Z,10.13
2023-02-15T04:44:29.230Z,9.70
2023-02-15T04:47:15.017Z,10.30
2023-02-15T04:50:00.446Z,9.43
2023-02-15T04:52:45.705Z,8.83
2023-02-15T04:55:31.077Z,9.30
2023-02-15T04:58:16.482Z,9.70
2023-02-15T05:01:02.773Z,9.70
2023-02-15T05:03:48.057Z,9.27
2023-02-15T05:06:33.460Z,9.63
2023-02-15T05:09:19.188Z,10.40
2023-02-15T05:12:04.833Z,9.23
2023-02-15T05:14:50.218Z,8.70
2023-02-15T05:17:35.617Z,9.37
2023-02-15T05:20:21.302Z,9.17
2023-02-15T05:23:06.851Z,9.30
2023-02-15T05:26:11.085Z,8.60
2023-02-15T05:28:56.344Z,8.60
2023-02-15T05:31:42.297Z,9.07
2023-02-15T05:34:28.445Z,9.33
2023-02-15T05:37:14.044Z,9.97
2023-02-15T05:39:59.358Z,9.63
2023-02-15T05:42:45.105Z,9.47
2023-02-15T05:45:31.110Z,9.13
2023-02-15T05:48:17.768Z,7.57
2023-02-15T05:51:09.219Z,8.57
2023-02-15T05:53:54.572Z,9.30
2023-02-15T05:56:40.046Z,8.83
2023-02-15T05:59:25.529Z,8.03
2023-02-15T06:02:11.189Z,8.20
2023-02-15T06:04:56.340Z,8.30
2023-02-15T06:07:45.862Z,8.43
2023-02-15T06:10:31.486Z,8.30
2023-02-15T06:13:17.083Z,8.60
2023-02-15T06:16:03.127Z,8.60
2023-02-15T06:18:48.840Z,8.70
2023-02-15T06:21:34.284Z,8.50
2023-02-15T06:24:19.690Z,9.17
2023-02-15T06:27:05.244Z,9.03
2023-02-15T06:29:50.684Z,9.00
2023-02-15T06:32:37.064Z,9.23
2023-02-15T06:35:23.014Z,9.03
2023-02-15T06:38:08.833Z,9.23
2023-02-15T06:40:54.188Z,8.23
2023-02-15T06:43:41.001Z,8.77
2023-02-15T06:46:26.903Z,8.20
2023-02-15T06:49:12.399Z,9.50
2023-02-15T06:51:58.127Z,9.23
2023-02-15T06:54:43.401Z,8.80
2023-02-15T06:57:28.696Z,9.20
2023-02-15T07:00:14.999Z,7.77
2023-02-15T07:03:00.971Z,8.13
2023-02-15T07:05:46.576Z,8.77
2023-02-15T07:08:32.171Z,8.47
2023-02-15T07:11:52.899Z,7.63
2023-02-15T07:14:38.199Z,8.90
2023-02-15T07:17:38.807Z,9.30
2023-02-15T07:20:25.170Z,7.67
2023-02-15T07:23:10.717Z,9.07
2023-02-15T07:28:39.874Z,8.73
2023-02-15T07:31:25.298Z,9.07
2023-02-15T07:34:10.972Z,9.17
2023-02-15T07:36:56.506Z,10.50
2023-02-15T07:39:41.831Z,11.63
2023-02-15T07:42:27.374Z,11.87
2023-02-15T07:45:13.540Z,10.87
2023-02-15T07:47:58.783Z,8.80
2023-02-15T07:50:44.320Z,8.77
2023-02-15T07:53:31.079Z,7.43
2023-02-15T07:56:16.717Z,7.50
2023-02-15T07:59:04.171Z,7.97
2023-02-15T08:01:49.690Z,7.60
2023-02-15T08:04:35.140Z,7.97
2023-02-15T08:07:20.707Z,7.90
2023-02-15T08:10:07.115Z,7.90
2023-02-15T08:12:52.362Z,9.03
2023-02-15T08:15:38.009Z,8.20
2023-02-15T08:18:23.640Z,8.00
2023-02-15T08:21:09.762Z,8.27
2023-02-15T08:23:56.055Z,7.53
2023-02-15T08:26:42.593Z,7.67
2023-02-15T08:29:29.851Z,7.67
2023-02-15T08:32:15.441Z,6.67
2023-02-15T08:35:00.795Z,6.30
2023-02-15T08:37:46.503Z,6.83
2023-02-15T08:40:31.772Z,6.57
2023-02-15T08:43:17.333Z,7.23
2023-02-15T08:46:03.025Z,7.03
2023-02-15T08:48:48.631Z,7.70
2023-02-15T08:51:36.693Z,7.07
2023-02-15T08:54:22.876Z,6.70
2023-02-15T08:57:08.402Z,7.80
2023-02-15T08:59:56.001Z,7.60
2023-02-15T09:02:41.371Z,6.97
2023-02-15T09:05:26.737Z,6.93
2023-02-15T09:08:12.407Z,6.77
2023-02-15T09:11:12.471Z,6.47
2023-02-15T09:14:02.392Z,6.77
2023-02-15T09:16:50.358Z,6.47
2023-02-15T09:19:36.176Z,6.60
2023-02-15T09:22:21.569Z,7.20
2023-02-15T09:25:07.572Z,6.57
2023-02-15T09:27:53.312Z,5.83
2023-02-15T09:30:38.697Z,5.87
2023-02-15T09:33:26.186Z,6.40
2023-02-15T09:36:33.040Z,5.53
2023-02-15T09:39:26.312Z,5.77
2023-02-15T09:42:23.462Z,5.53
2023-02-15T09:45:23.179Z,5.70
2023-02-15T09:48:35.439Z,5.20
2023-02-15T09:51:55.899Z,5.07
2023-02-15T09:54:47.722Z,5.20
2023-02-15T09:58:03.585Z,5.03
2023-02-15T10:01:03.678Z,5.07
2023-02-15T10:03:56.543Z,5.17
2023-02-15T10:07:02.761Z,5.00
2023-02-15T10:10:06.079Z,5.10
2023-02-15T10:13:03.349Z,5.30
2023-02-15T10:16:03.982Z,4.50
2023-02-15T10:19:02.352Z,4.67
2023-02-15T10:22:13.386Z,4.30
2023-02-15T10:25:24.799Z,4.77
2023-02-15T10:28:21.617Z,3.90
2023-02-15T10:31:28.314Z,4.00
2023-02-15T10:34:29.117Z,5.63
2023-02-15T10:37:41.224Z,5.00
2023-02-15T10:40:42.329Z,4.57
2023-02-15T10:43:30.721Z,4.53
2023-02-15T10:46:34.634Z,7.33
2023-02-15T10:49:31.068Z,4.88
2023-02-15T10:52:33.385Z,4.95
2023-02-15T10:55:25.227Z,5.07
2023-02-15T10:58:27.807Z,5.10
2023-02-15T11:01:35.229Z,5.88
2023-02-15T11:04:51.941Z,5.53
2023-02-15T11:07:44.071Z,5.03
2023-02-15T11:10:48.050Z,5.38
2023-02-15T11:13:39.387Z,5.22
2023-02-15T11:16:55.960Z,5.75
2023-02-15T11:19:58.260Z,6.18
2023-02-15T11:22:43.704Z,5.22
2023-02-15T11:25:35.293Z,7.60
2023-02-15T11:28:28.570Z,6.80
2023-02-15T11:31:18.692Z,6.45
2023-02-15T11:34:13.172Z,6.35
2023-02-15T11:37:04.812Z,6.43
2023-02-15T11:39:55.627Z,6.95
2023-02-15T11:42:42.799Z,6.18
2023-02-15T11:45:35.414Z,5.82
2023-02-15T11:48:20.655Z,6.30
2023-02-15T11:51:06.782Z,6.40
2023-02-15T11:53:52.966Z,6.65
2023-02-15T11:56:38.616Z,6.32
2023-02-15T11:59:35.265Z,6.95
2023-02-15T12:02:23.182Z,6.70
2023-02-15T12:05:15.855Z,7.18
2023-02-15T12:08:18.988Z,6.63
2023-02-15T12:11:16.475Z,6.60
2023-02-15T12:14:06.206Z,6.28
2023-02-15T12:16:57.509Z,6.25
2023-02-15T12:19:42.774Z,6.30
2023-02-15T12:22:34.851Z,6.78
2023-02-15T12:25:28.771Z,6.07
2023-02-15T12:28:34.215Z,5.82
2023-02-15T12:31:31.774Z,6.47
2023-02-15T12:34:40.469Z,6.38
2023-02-15T12:37:29.650Z,6.05
2023-02-15T12:40:24.703Z,6.00
2023-02-15T12:43:28.115Z,5.88
2023-02-15T12:46:27.592Z,6.13
2023-02-15T12:49:21.319Z,6.18
2023-02-15T12:52:26.092Z,6.70
2023-02-15T12:55:26.484Z,6.28
2023-02-15T12:58:20.841Z,6.10
2023-02-15T13:01:25.394Z,6.05
2023-02-15T13:07:14.730Z,6.40
2023-02-15T13:10:00.095Z,6.57
2023-02-15T13:12:48.322Z,6.22
2023-02-15T13:15:47.568Z,6.45
2023-02-15T13:18:37.590Z,6.65
2023-02-15T13:21:26.728Z,6.03
2023-02-15T13:24:30.560Z,6.38
2023-02-15T13:27:21.201Z,6.30
2023-02-15T13:30:32.213Z,6.18
2023-02-15T13:33:27.232Z,6.05
2023-02-15T13:36:35.871Z,5.78
2023-02-15T13:39:40.534Z,5.45
2023-02-15T13:42:48.638Z,6.47
2023-02-15T13:45:45.341Z,5.55
2023-02-15T13:48:47.191Z,5.70
2023-02-15T13:51:47.065Z,6.13
2023-02-15T13:55:10.087Z,5.30
2023-02-15T13:58:08.098Z,5.18
2023-02-15T14:01:09.859Z,5.88
2023-02-15T14:03:57.972Z,5.22
2023-02-15T14:07:18.602Z,5.20
2023-02-15T14:10:20.758Z,5.28
2023-02-15T14:13:52.113Z,5.47
2023-02-15T14:17:06.252Z,5.68
2023-02-15T14:20:18.196Z,5.32
2023-02-15T14:23:12.143Z,5.60
2023-02-15T14:26:02.758Z,5.22
2023-02-15T14:29:02.108Z,5.65
2023-02-15T14:31:53.264Z,6.65
2023-02-15T14:35:00.303Z,6.00
2023-02-15T14:37:59.863Z,6.15
2023-02-15T14:41:04.586Z,6.10
2023-02-15T14:44:29.759Z,6.22
2023-02-15T14:47:39.624Z,5.55
2023-02-15T14:50:31.106Z,6.30
2023-02-15T14:53:23.358Z,6.38
2023-02-15T14:56:11.732Z,6.78
2023-02-15T14:59:00.214Z,7.43
2023-02-15T15:02:04.834Z,7.40
2023-02-15T15:05:07.117Z,6.35
2023-02-15T15:07:55.572Z,6.80
2023-02-15T15:10:46.956Z,7.07
2023-02-15T15:13:32.143Z,7.22
2023-02-15T15:16:29.594Z,7.07
2023-02-15T15:19:54.040Z,6.63
2023-02-15T15:22:39.494Z,7.47
2023-02-15T15:25:36.479Z,7.88
2023-02-15T15:28:34.157Z,8.30
2023-02-15T15:31:32.335Z,7.85
2023-02-15T15:34:35.539Z,9.55
2023-02-15T15:37:47.686Z,11.98
2023-02-15T15:40:36.100Z,14.80
2023-02-15T15:43:29.045Z,13.70
2023-02-15T15:46:23.327Z,14.63
2023-02-15T15:51:56.072Z,15.30
2023-02-15T15:54:43.116Z,15.82
2023-02-15T15:57:33.839Z,14.43
2023-02-15T16:00:40.793Z,15.70
2023-02-15T16:03:28.053Z,15.25
2023-02-15T16:06:15.869Z,16.27
2023-02-15T16:09:21.632Z,16.67
2023-02-15T16:12:17.004Z,15.70
2023-02-15T16:15:27.493Z,15.90
2023-02-15T16:18:20.981Z,16.20
2023-02-15T16:21:06.309Z,16.45
2023-02-15T16:24:19.951Z,16.02
2023-02-15T16:27:08.047Z,16.23
2023-02-15T16:29:53.665Z,16.58
2023-02-15T16:32:39.224Z,17.90
2023-02-15T16:35:24.943Z,16.98
2023-02-15T16:38:14.469Z,18.15
2023-02-15T16:41:02.409Z,17.52
2023-02-15T16:43:50.437Z,18.02
2023-02-15T16:46:43.851Z,18.27
2023-02-15T16:49:30.634Z,17.60
2023-02-15T16:52:22.332Z,17.52
2023-02-15T16:55:07.739Z,18.50
2023-02-15T16:57:58.171Z,17.80
2023-02-15T17:00:43.853Z,18.48
2023-02-15T17:03:30.351Z,18.00
2023-02-15T17:06:27.751Z,17.48
2023-02-15T17:09:23.318Z,16.23
2023-02-15T17:12:10.546Z,17.23
2023-02-15T17:14:56.380Z,18.63
2023-02-15T17:17:42.965Z,17.85
2023-02-15T17:20:29.288Z,16.90
2023-02-15T17:23:32.046Z,16.95
2023-02-15T17:26:24.007Z,17.88
2023-02-15T17:29:38.592Z,16.13
2023-02-15T17:32:30.312Z,15.77
2023-02-15T17:35:26.682Z,15.98
2023-02-15T17:38:21.424Z,15.38
2023-02-15T17:43:52.670Z,14.70
2023-02-15T17:46:38.556Z,16.15
2023-02-15T17:49:34.906Z,16.15
2023-02-15T17:52:20.154Z,16.90
2023-02-15T17:55:32.223Z,16.15
2023-02-15T17:58:19.728Z,15.30
2023-02-15T18:01:33.509Z,16.05
2023-02-15T18:04:38.023Z,15.82
2023-02-15T18:07:42.536Z,16.80
2023-02-15T18:10:46.212Z,18.13
2023-02-15T18:13:31.450Z,18.73
2023-02-15T18:16:22.317Z,16.80
2023-02-15T18:19:14.120Z,16.70
2023-02-15T18:21:59.643Z,16.10
2023-02-15T18:24:45.988Z,15.63
2023-02-15T18:27:31.308Z,15.15
2023-02-15T18:30:21.823Z,15.93
2023-02-15T18:33:07.098Z,16.75
2023-02-15T18:35:52.919Z,16.67
2023-02-15T18:38:38.412Z,16.20
2023-02-15T18:41:24.360Z,15.70
2023-02-15T18:44:13.104Z,15.50
2023-02-15T18:46:58.790Z,16.30
2023-02-15T18:49:44.053Z,15.63
2023-02-15T18:52:34.693Z,15.67
2023-02-15T18:55:28.276Z,15.20
2023-02-15T18:58:17.537Z,14.57
2023-02-15T19:01:03.675Z,14.23
2023-02-15T19:03:51.367Z,15.47
2023-02-15T19:06:40.271Z,13.97
2023-02-15T19:09:27.809Z,14.53
2023-02-15T19:12:13.859Z,13.53
2023-02-15T19:14:59.445Z,14.63
2023-02-15T19:17:45.166Z,15.40
2023-02-15T19:20:35.033Z,14.90
2023-02-15T19:23:24.647Z,14.77
2023-02-15T19:26:10.960Z,15.00
2023-02-15T19:28:56.291Z,15.67
2023-02-15T19:31:42.330Z,13.60
2023-02-15T19:34:27.899Z,14.33
2023-02-15T19:37:24.055Z,14.00
2023-02-15T19:40:28.997Z,14.17
2023-02-15T19:43:20.193Z,15.00
2023-02-15T19:46:05.994Z,16.40
2023-02-15T19:48:53.486Z,14.67
2023-02-15T19:51:39.734Z,13.70
2023-02-15T19:54:31.570Z,15.53
2023-02-15T19:57:17.226Z,15.20
2023-02-15T20:00:21.112Z,13.97
2023-02-15T20:03:07.425Z,13.82
2023-02-15T20:05:53.039Z,14.80
2023-02-15T20:08:38.304Z,14.37
2023-02-15T20:11:24.136Z,13.63
2023-02-15T20:14:14.088Z,14.10
2023-02-15T20:16:59.274Z,13.63
2023-02-15T20:19:46.140Z,14.87
2023-02-15T20:22:31.329Z,14.57
2023-02-15T20:25:22.033Z,15.57
2023-02-15T20:28:23.248Z,14.47
2023-02-15T20:31:15.528Z,16.77
2023-02-15T20:34:01.308Z,14.90
2023-02-15T20:36:46.762Z,14.80
2023-02-15T20:39:34.404Z,15.43
2023-02-15T20:42:19.827Z,14.83
2023-02-15T20:45:16.052Z,14.40
2023-02-15T20:48:02.117Z,15.07
2023-02-15T20:50:47.603Z,14.67
2023-02-15T20:53:33.170Z,13.87
2023-02-15T20:56:23.903Z,14.90
2023-02-15T20:59:35.733Z,16.17
2023-02-15T21:02:25.790Z,13.57
2023-02-15T21:05:19.014Z,13.33
2023-02-15T21:08:15.432Z,14.57
2023-02-15T21:11:01.912Z,14.60
2023-02-15T21:13:49.086Z,13.57
2023-02-15T21:16:34.651Z,13.50
2023-02-15T21:19:23.034Z,12.83
2023-02-15T21:22:12.589Z,13.10
2023-02-15T21:24:58.204Z,13.30
2023-02-15T21:27:44.419Z,13.70
2023-02-15T21:30:30.048Z,14.13
2023-02-15T21:33:16.255Z,13.50
2023-02-15T21:36:02.789Z,13.43
2023-02-15T21:38:48.623Z,13.70
2023-02-15T21:41:53.014Z,12.67
2023-02-15T21:44:57.488Z,13.90
2023-02-15T21:47:51.579Z,12.05
2023-02-15T21:50:55.402Z,13.25
2023-02-15T21:53:48.531Z,12.30
2023-02-15T21:56:34.131Z,12.53
2023-02-15T21:59:20.130Z,12.43
2023-02-15T22:02:30.994Z,13.47
2023-02-15T22:05:19.386Z,14.00
2023-02-15T22:08:13.512Z,14.27
2023-02-15T22:10:59.089Z,13.52
2023-02-15T22:13:45.556Z,13.20
2023-02-15T22:16:30.791Z,13.63
2023-02-15T22:19:16.423Z,12.77
2023-02-15T22:22:01.922Z,12.57
2023-02-15T22:24:47.756Z,13.30
2023-02-15T22:27:38.958Z,13.50
2023-02-15T22:30:30.848Z,11.77
2023-02-15T22:33:28.446Z,12.20
2023-02-15T22:36:28.719Z,13.03
2023-02-15T22:39:13.960Z,12.23
2023-02-15T22:41:59.682Z,13.20
2023-02-15T22:44:45.058Z,13.30
2023-02-15T22:47:32.214Z,13.03
2023-02-15T22:50:23.908Z,11.83
2023-02-15T22:53:09.780Z,13.60
2023-02-15T22:55:55.910Z,11.60
2023-02-15T22:58:41.430Z,11.93
2023-02-15T23:01:35.391Z,11.67
2023-02-15T23:04:24.401Z,12.05
2023-02-15T23:07:14.617Z,12.37
2023-02-15T23:10:00.165Z,12.30
2023-02-15T23:13:04.330Z,12.47
2023-02-15T23:15:52.908Z,10.37
2023-02-15T23:18:40.552Z,11.10
2023-02-15T23:21:29.754Z,10.20
2023-02-15T23:24:20.440Z,10.43
2023-02-15T23:27:24.502Z,10.93
2023-02-15T23:30:14.289Z,11.70
2023-02-15T23:32:59.925Z,10.03
2023-02-15T23:35:45.212Z,10.63
2023-02-15T23:38:32.584Z,10.93
2023-02-15T23:41:22.985Z,10.77
2023-02-15T23:44:10.898Z,10.13
2023-02-15T23:46:56.624Z,9.27
2023-02-15T23:49:42.163Z,10.83
2023-02-15T23:52:27.642Z,9.57
2023-02-15T23:55:14.389Z,10.80
2023-02-15T23:57:59.764Z,10.23
